KNBT

Bt-11 Bombing Range Airport

Piney Island, North Carolina, USA
METAR KNBT 162356Z AUTO 25007KT 10SM BKN041 11/09 A2992 RMK AO2 SLP136 6//// T01110089 10156 20111 51023 PNO $
Observed Flight Rules
Dec-16 @ 23:56 UTC (32 minutes ago) Visual Flight Rules
Wind Visibility Clouds
250° at 7 knots 10 miles
  • Broken at 4,100' AGL
Temperatures Readings
Current 11°C / 52°F
Dewpoint 9°C / 48°F
Humidity 88%
Altimeter 29.92" Hg
Pressure 1013.6 hPa
Elevation 5
METAR KNBT 162356Z AUTO 25007KT 10SM BKN041 11/09 A2992 RMK AO2 SLP136 6//// T01110089 10156 20111 51023 PNO $
Observed Flight Rules
Dec-16 @ 23:56 UTC
(32 minutes ago)
VFR
Wind Visibility
250° at 7 knots 10 miles
Clouds
  • Broken at 4,100' AGL
Temperature Dewpoint
11°C / 52°F 9°C / 48°F
Humidity Altimeter Pressure
88% 29.92" Hg 1013.6 hPa